sensor_id;sensor_type;location;lat;lon;timestamp;P1;durP1;ratioP1;P2;durP2;ratioP2
56319;SDS011;42226;42.382;23.748;2022-11-20T00:01:29;10.38;;;9.02;;
56319;SDS011;42226;42.382;23.748;2022-11-20T00:03:57;10.73;;;9.63;;
56319;SDS011;42226;42.382;23.748;2022-11-20T00:06:26;11.23;;;8.25;;
56319;SDS011;42226;42.382;23.748;2022-11-20T00:08:55;10.63;;;8.60;;
56319;SDS011;42226;42.382;23.748;2022-11-20T00:11:26;11.85;;;10.40;;
56319;SDS011;42226;42.382;23.748;2022-11-20T00:13:56;13.82;;;8.80;;
56319;SDS011;42226;42.382;23.748;2022-11-20T00:16:27;10.30;;;8.63;;
56319;SDS011;42226;42.382;23.748;2022-11-20T00:18:56;10.27;;;8.13;;
56319;SDS011;42226;42.382;23.748;2022-11-20T00:21:24;9.50;;;8.35;;
56319;SDS011;42226;42.382;23.748;2022-11-20T00:23:55;11.60;;;10.07;;
56319;SDS011;42226;42.382;23.748;2022-11-20T00:26:24;9.52;;;7.78;;
56319;SDS011;42226;42.382;23.748;2022-11-20T00:28:54;8.25;;;6.60;;
56319;SDS011;42226;42.382;23.748;2022-11-20T00:31:24;7.40;;;6.63;;
56319;SDS011;42226;42.382;23.748;2022-11-20T00:33:53;8.15;;;6.60;;
56319;SDS011;42226;42.382;23.748;2022-11-20T00:36:22;7.70;;;6.90;;
56319;SDS011;42226;42.382;23.748;2022-11-20T00:38:54;10.43;;;7.28;;
56319;SDS011;42226;42.382;23.748;2022-11-20T00:41:23;9.23;;;7.82;;
56319;SDS011;42226;42.382;23.748;2022-11-20T00:43:54;10.20;;;8.30;;
56319;SDS011;42226;42.382;23.748;2022-11-20T00:46:22;8.25;;;6.90;;
56319;SDS011;42226;42.382;23.748;2022-11-20T00:48:53;10.13;;;6.38;;
56319;SDS011;42226;42.382;23.748;2022-11-20T00:51:21;10.10;;;6.85;;
56319;SDS011;42226;42.382;23.748;2022-11-20T00:53:51;9.80;;;7.95;;
56319;SDS011;42226;42.382;23.748;2022-11-20T00:56:22;10.25;;;7.88;;
56319;SDS011;42226;42.382;23.748;2022-11-20T00:58:50;9.32;;;7.20;;
56319;SDS011;42226;42.382;23.748;2022-11-20T01:01:18;10.07;;;8.10;;
56319;SDS011;42226;42.382;23.748;2022-11-20T01:03:50;8.70;;;6.30;;
56319;SDS011;42226;42.382;23.748;2022-11-20T01:06:26;6.75;;;6.13;;
56319;SDS011;42226;42.382;23.748;2022-11-20T01:09:02;8.15;;;7.22;;
56319;SDS011;42226;42.382;23.748;2022-11-20T01:11:41;6.82;;;5.43;;
56319;SDS011;42226;42.382;23.748;2022-11-20T01:14:12;7.78;;;5.65;;
56319;SDS011;42226;42.382;23.748;2022-11-20T01:16:45;7.38;;;6.40;;
56319;SDS011;42226;42.382;23.748;2022-11-20T01:22:38;7.63;;;6.13;;
56319;SDS011;42226;42.382;23.748;2022-11-20T01:25:06;7.45;;;6.43;;
56319;SDS011;42226;42.382;23.748;2022-11-20T01:27:35;7.75;;;6.22;;
56319;SDS011;42226;42.382;23.748;2022-11-20T01:30:03;9.85;;;7.10;;
56319;SDS011;42226;42.382;23.748;2022-11-20T01:32:32;9.00;;;7.43;;
56319;SDS011;42226;42.382;23.748;2022-11-20T01:35:03;7.05;;;5.40;;
56319;SDS011;42226;42.382;23.748;2022-11-20T01:37:30;6.22;;;4.57;;
56319;SDS011;42226;42.382;23.748;2022-11-20T01:39:57;5.10;;;4.30;;
56319;SDS011;42226;42.382;23.748;2022-11-20T01:42:23;5.82;;;4.22;;
56319;SDS011;42226;42.382;23.748;2022-11-20T01:45:42;5.68;;;4.50;;
56319;SDS011;42226;42.382;23.748;2022-11-20T01:48:38;6.05;;;4.80;;
56319;SDS011;42226;42.382;23.748;2022-11-20T01:51:21;4.72;;;4.32;;
56319;SDS011;42226;42.382;23.748;2022-11-20T01:54:02;6.03;;;4.63;;
56319;SDS011;42226;42.382;23.748;2022-11-20T01:56:50;5.68;;;4.97;;
56319;SDS011;42226;42.382;23.748;2022-11-20T01:59:20;5.70;;;4.78;;
56319;SDS011;42226;42.382;23.748;2022-11-20T02:01:50;7.50;;;4.70;;
56319;SDS011;42226;42.382;23.748;2022-11-20T02:04:18;5.65;;;4.95;;
56319;SDS011;42226;42.382;23.748;2022-11-20T02:06:55;5.68;;;4.72;;
56319;SDS011;42226;42.382;23.748;2022-11-20T02:09:26;6.45;;;5.32;;
56319;SDS011;42226;42.382;23.748;2022-11-20T02:11:54;6.35;;;4.70;;
56319;SDS011;42226;42.382;23.748;2022-11-20T02:14:22;5.50;;;4.60;;
56319;SDS011;42226;42.382;23.748;2022-11-20T02:16:50;6.75;;;5.50;;
56319;SDS011;42226;42.382;23.748;2022-11-20T02:22:10;5.70;;;4.30;;
56319;SDS011;42226;42.382;23.748;2022-11-20T02:25:02;5.90;;;4.10;;
56319;SDS011;42226;42.382;23.748;2022-11-20T02:27:31;6.57;;;5.30;;
56319;SDS011;42226;42.382;23.748;2022-11-20T02:30:01;7.75;;;5.60;;
56319;SDS011;42226;42.382;23.748;2022-11-20T02:32:36;6.93;;;5.10;;
56319;SDS011;42226;42.382;23.748;2022-11-20T02:35:07;6.22;;;5.10;;
56319;SDS011;42226;42.382;23.748;2022-11-20T02:37:36;5.85;;;4.72;;
56319;SDS011;42226;42.382;23.748;2022-11-20T02:40:06;4.75;;;4.20;;
56319;SDS011;42226;42.382;23.748;2022-11-20T02:42:34;8.05;;;4.95;;
56319;SDS011;42226;42.382;23.748;2022-11-20T02:45:03;6.97;;;4.47;;
56319;SDS011;42226;42.382;23.748;2022-11-20T02:47:32;4.97;;;3.88;;
56319;SDS011;42226;42.382;23.748;2022-11-20T02:50:00;5.55;;;4.35;;
56319;SDS011;42226;42.382;23.748;2022-11-20T02:52:27;5.20;;;4.00;;
56319;SDS011;42226;42.382;23.748;2022-11-20T02:54:56;4.40;;;3.78;;
56319;SDS011;42226;42.382;23.748;2022-11-20T02:57:23;4.47;;;3.80;;
56319;SDS011;42226;42.382;23.748;2022-11-20T02:59:51;6.88;;;3.70;;
56319;SDS011;42226;42.382;23.748;2022-11-20T03:02:19;5.20;;;3.95;;
56319;SDS011;42226;42.382;23.748;2022-11-20T03:04:45;5.25;;;3.38;;
56319;SDS011;42226;42.382;23.748;2022-11-20T03:07:13;5.57;;;3.40;;
56319;SDS011;42226;42.382;23.748;2022-11-20T03:09:39;5.68;;;4.20;;
56319;SDS011;42226;42.382;23.748;2022-11-20T03:12:07;4.75;;;4.25;;
56319;SDS011;42226;42.382;23.748;2022-11-20T03:14:34;4.78;;;4.20;;
56319;SDS011;42226;42.382;23.748;2022-11-20T03:17:01;6.40;;;4.10;;
56319;SDS011;42226;42.382;23.748;2022-11-20T03:19:29;4.80;;;4.30;;
56319;SDS011;42226;42.382;23.748;2022-11-20T03:21:56;4.65;;;3.60;;
56319;SDS011;42226;42.382;23.748;2022-11-20T03:24:24;4.90;;;3.67;;
56319;SDS011;42226;42.382;23.748;2022-11-20T03:26:52;4.63;;;3.75;;
56319;SDS011;42226;42.382;23.748;2022-11-20T03:29:20;3.40;;;3.10;;
56319;SDS011;42226;42.382;23.748;2022-11-20T03:31:47;4.28;;;3.20;;
56319;SDS011;42226;42.382;23.748;2022-11-20T03:34:14;5.50;;;3.00;;
56319;SDS011;42226;42.382;23.748;2022-11-20T03:36:42;3.28;;;2.85;;
56319;SDS011;42226;42.382;23.748;2022-11-20T03:39:10;5.00;;;3.00;;
56319;SDS011;42226;42.382;23.748;2022-11-20T03:41:38;4.20;;;3.03;;
56319;SDS011;42226;42.382;23.748;2022-11-20T03:44:08;2.95;;;2.63;;
56319;SDS011;42226;42.382;23.748;2022-11-20T03:46:38;3.88;;;2.70;;
56319;SDS011;42226;42.382;23.748;2022-11-20T03:49:05;2.97;;;2.42;;
56319;SDS011;42226;42.382;23.748;2022-11-20T03:51:34;3.47;;;2.20;;
56319;SDS011;42226;42.382;23.748;2022-11-20T03:54:03;3.47;;;2.95;;
56319;SDS011;42226;42.382;23.748;2022-11-20T03:56:35;3.53;;;3.22;;
56319;SDS011;42226;42.382;23.748;2022-11-20T03:59:05;5.30;;;3.70;;
56319;SDS011;42226;42.382;23.748;2022-11-20T04:01:36;4.07;;;3.33;;
56319;SDS011;42226;42.382;23.748;2022-11-20T04:04:04;3.88;;;2.85;;
56319;SDS011;42226;42.382;23.748;2022-11-20T04:06:36;3.63;;;2.90;;
56319;SDS011;42226;42.382;23.748;2022-11-20T04:09:04;3.10;;;2.90;;
56319;SDS011;42226;42.382;23.748;2022-11-20T04:11:34;3.22;;;2.80;;
56319;SDS011;42226;42.382;23.748;2022-11-20T04:14:11;3.60;;;2.10;;
56319;SDS011;42226;42.382;23.748;2022-11-20T04:16:41;3.13;;;2.38;;
56319;SDS011;42226;42.382;23.748;2022-11-20T04:19:11;2.95;;;2.65;;
56319;SDS011;42226;42.382;23.748;2022-11-20T04:21:42;5.03;;;2.85;;
56319;SDS011;42226;42.382;23.748;2022-11-20T04:24:11;4.03;;;3.00;;
56319;SDS011;42226;42.382;23.748;2022-11-20T04:26:39;4.05;;;2.90;;
56319;SDS011;42226;42.382;23.748;2022-11-20T04:29:09;3.67;;;3.00;;
56319;SDS011;42226;42.382;23.748;2022-11-20T04:31:38;4.00;;;2.80;;
56319;SDS011;42226;42.382;23.748;2022-11-20T04:34:06;4.22;;;2.50;;
56319;SDS011;42226;42.382;23.748;2022-11-20T04:36:34;3.20;;;2.20;;
56319;SDS011;42226;42.382;23.748;2022-11-20T04:39:02;3.00;;;2.40;;
56319;SDS011;42226;42.382;23.748;2022-11-20T04:41:34;4.82;;;2.28;;
56319;SDS011;42226;42.382;23.748;2022-11-20T04:44:02;4.18;;;2.22;;
56319;SDS011;42226;42.382;23.748;2022-11-20T04:46:36;2.20;;;2.00;;
56319;SDS011;42226;42.382;23.748;2022-11-20T04:49:12;3.95;;;2.25;;
56319;SDS011;42226;42.382;23.748;2022-11-20T04:51:41;3.03;;;2.70;;
56319;SDS011;42226;42.382;23.748;2022-11-20T04:54:10;3.78;;;3.10;;
56319;SDS011;42226;42.382;23.748;2022-11-20T04:56:38;4.05;;;3.20;;
56319;SDS011;42226;42.382;23.748;2022-11-20T04:59:05;5.82;;;3.20;;
56319;SDS011;42226;42.382;23.748;2022-11-20T05:01:34;5.57;;;3.35;;
56319;SDS011;42226;42.382;23.748;2022-11-20T05:04:01;4.70;;;3.20;;
56319;SDS011;42226;42.382;23.748;2022-11-20T05:06:28;4.60;;;3.10;;
56319;SDS011;42226;42.382;23.748;2022-11-20T05:08:55;3.42;;;2.90;;
56319;SDS011;42226;42.382;23.748;2022-11-20T05:11:23;5.78;;;3.50;;
56319;SDS011;42226;42.382;23.748;2022-11-20T05:13:51;3.55;;;2.80;;
56319;SDS011;42226;42.382;23.748;2022-11-20T05:16:20;2.70;;;2.50;;
56319;SDS011;42226;42.382;23.748;2022-11-20T05:18:51;6.93;;;3.53;;
56319;SDS011;42226;42.382;23.748;2022-11-20T05:21:21;4.75;;;3.30;;
56319;SDS011;42226;42.382;23.748;2022-11-20T05:23:48;4.07;;;3.15;;
56319;SDS011;42226;42.382;23.748;2022-11-20T05:26:20;4.95;;;3.25;;
56319;SDS011;42226;42.382;23.748;2022-11-20T05:28:48;5.07;;;3.20;;
56319;SDS011;42226;42.382;23.748;2022-11-20T05:31:18;3.75;;;2.60;;
56319;SDS011;42226;42.382;23.748;2022-11-20T05:33:48;3.40;;;3.10;;
56319;SDS011;42226;42.382;23.748;2022-11-20T05:36:16;3.97;;;3.03;;
56319;SDS011;42226;42.382;23.748;2022-11-20T05:38:44;5.00;;;2.70;;
56319;SDS011;42226;42.382;23.748;2022-11-20T05:41:12;3.42;;;2.90;;
56319;SDS011;42226;42.382;23.748;2022-11-20T05:43:44;4.15;;;2.60;;
56319;SDS011;42226;42.382;23.748;2022-11-20T05:46:13;4.43;;;3.47;;
56319;SDS011;42226;42.382;23.748;2022-11-20T05:48:44;6.47;;;3.47;;
56319;SDS011;42226;42.382;23.748;2022-11-20T05:51:13;3.80;;;2.75;;
56319;SDS011;42226;42.382;23.748;2022-11-20T05:53:44;4.68;;;2.72;;
56319;SDS011;42226;42.382;23.748;2022-11-20T05:56:12;4.15;;;2.88;;
56319;SDS011;42226;42.382;23.748;2022-11-20T05:58:44;3.47;;;2.80;;
56319;SDS011;42226;42.382;23.748;2022-11-20T06:01:19;4.40;;;2.42;;
56319;SDS011;42226;42.382;23.748;2022-11-20T06:03:50;2.80;;;2.38;;
56319;SDS011;42226;42.382;23.748;2022-11-20T06:06:19;4.05;;;2.85;;
56319;SDS011;42226;42.382;23.748;2022-11-20T06:08:47;5.15;;;2.50;;
56319;SDS011;42226;42.382;23.748;2022-11-20T06:11:15;3.42;;;2.50;;
56319;SDS011;42226;42.382;23.748;2022-11-20T06:13:43;4.13;;;2.63;;
56319;SDS011;42226;42.382;23.748;2022-11-20T06:16:11;3.13;;;2.03;;
56319;SDS011;42226;42.382;23.748;2022-11-20T06:18:41;5.18;;;2.20;;
56319;SDS011;42226;42.382;23.748;2022-11-20T06:21:13;3.80;;;2.03;;
56319;SDS011;42226;42.382;23.748;2022-11-20T06:23:43;4.72;;;2.40;;
56319;SDS011;42226;42.382;23.748;2022-11-20T06:26:15;4.63;;;2.10;;
56319;SDS011;42226;42.382;23.748;2022-11-20T06:28:50;3.05;;;2.13;;
56319;SDS011;42226;42.382;23.748;2022-11-20T06:31:19;3.40;;;1.90;;
56319;SDS011;42226;42.382;23.748;2022-11-20T06:33:50;4.25;;;2.10;;
56319;SDS011;42226;42.382;23.748;2022-11-20T06:36:18;3.25;;;2.55;;
56319;SDS011;42226;42.382;23.748;2022-11-20T06:38:47;3.03;;;2.78;;
56319;SDS011;42226;42.382;23.748;2022-11-20T06:41:17;4.50;;;2.92;;
56319;SDS011;42226;42.382;23.748;2022-11-20T06:43:47;3.05;;;2.75;;
56319;SDS011;42226;42.382;23.748;2022-11-20T06:46:15;4.43;;;2.90;;
56319;SDS011;42226;42.382;23.748;2022-11-20T06:48:46;3.85;;;2.80;;
56319;SDS011;42226;42.382;23.748;2022-11-20T06:51:15;2.75;;;2.40;;
56319;SDS011;42226;42.382;23.748;2022-11-20T06:53:42;4.65;;;3.00;;
56319;SDS011;42226;42.382;23.748;2022-11-20T06:56:10;3.67;;;2.70;;
56319;SDS011;42226;42.382;23.748;2022-11-20T06:58:38;3.22;;;2.92;;
56319;SDS011;42226;42.382;23.748;2022-11-20T07:01:12;3.40;;;2.78;;
56319;SDS011;42226;42.382;23.748;2022-11-20T07:03:41;5.53;;;2.60;;
56319;SDS011;42226;42.382;23.748;2022-11-20T07:06:11;6.55;;;3.25;;
56319;SDS011;42226;42.382;23.748;2022-11-20T07:08:39;9.25;;;7.50;;
56319;SDS011;42226;42.382;23.748;2022-11-20T07:11:07;6.90;;;5.93;;
56319;SDS011;42226;42.382;23.748;2022-11-20T07:13:38;5.10;;;3.75;;
56319;SDS011;42226;42.382;23.748;2022-11-20T07:16:06;3.92;;;3.53;;
56319;SDS011;42226;42.382;23.748;2022-11-20T07:18:35;4.05;;;2.65;;
56319;SDS011;42226;42.382;23.748;2022-11-20T07:21:07;3.92;;;3.30;;
56319;SDS011;42226;42.382;23.748;2022-11-20T07:23:36;6.32;;;3.03;;
56319;SDS011;42226;42.382;23.748;2022-11-20T07:26:03;3.60;;;2.80;;
56319;SDS011;42226;42.382;23.748;2022-11-20T07:28:31;3.47;;;2.90;;
56319;SDS011;42226;42.382;23.748;2022-11-20T07:30:59;3.47;;;2.78;;
56319;SDS011;42226;42.382;23.748;2022-11-20T07:33:27;3.85;;;2.90;;
56319;SDS011;42226;42.382;23.748;2022-11-20T07:35:54;4.50;;;3.20;;
56319;SDS011;42226;42.382;23.748;2022-11-20T07:38:24;6.78;;;5.57;;
56319;SDS011;42226;42.382;23.748;2022-11-20T07:40:55;3.40;;;3.10;;
56319;SDS011;42226;42.382;23.748;2022-11-20T07:43:23;4.28;;;3.33;;
56319;SDS011;42226;42.382;23.748;2022-11-20T07:45:51;4.20;;;2.92;;
56319;SDS011;42226;42.382;23.748;2022-11-20T07:48:21;4.63;;;2.90;;
56319;SDS011;42226;42.382;23.748;2022-11-20T07:50:49;3.22;;;2.50;;
56319;SDS011;42226;42.382;23.748;2022-11-20T07:53:19;7.38;;;6.68;;
56319;SDS011;42226;42.382;23.748;2022-11-20T07:55:46;5.30;;;4.80;;
56319;SDS011;42226;42.382;23.748;2022-11-20T07:58:18;4.45;;;3.83;;
56319;SDS011;42226;42.382;23.748;2022-11-20T08:00:45;4.07;;;3.17;;
56319;SDS011;42226;42.382;23.748;2022-11-20T08:03:13;4.07;;;2.78;;
56319;SDS011;42226;42.382;23.748;2022-11-20T08:05:40;4.45;;;2.85;;
56319;SDS011;42226;42.382;23.748;2022-11-20T08:08:08;3.55;;;2.30;;
56319;SDS011;42226;42.382;23.748;2022-11-20T08:10:35;3.22;;;2.20;;
56319;SDS011;42226;42.382;23.748;2022-11-20T08:13:02;3.88;;;1.98;;
56319;SDS011;42226;42.382;23.748;2022-11-20T08:15:48;2.53;;;2.33;;
56319;SDS011;42226;42.382;23.748;2022-11-20T08:18:19;4.72;;;2.65;;
56319;SDS011;42226;42.382;23.748;2022-11-20T08:20:46;3.45;;;2.20;;
56319;SDS011;42226;42.382;23.748;2022-11-20T08:23:14;5.97;;;2.92;;
56319;SDS011;42226;42.382;23.748;2022-11-20T08:25:40;3.80;;;2.67;;
56319;SDS011;42226;42.382;23.748;2022-11-20T08:28:08;3.63;;;2.50;;
56319;SDS011;42226;42.382;23.748;2022-11-20T08:30:36;3.60;;;2.42;;
56319;SDS011;42226;42.382;23.748;2022-11-20T08:33:05;6.00;;;3.08;;
56319;SDS011;42226;42.382;23.748;2022-11-20T08:35:35;3.33;;;2.60;;
56319;SDS011;42226;42.382;23.748;2022-11-20T08:38:04;4.57;;;2.40;;
56319;SDS011;42226;42.382;23.748;2022-11-20T08:40:33;5.10;;;2.90;;
56319;SDS011;42226;42.382;23.748;2022-11-20T08:43:00;3.83;;;2.60;;
56319;SDS011;42226;42.382;23.748;2022-11-20T08:45:28;4.80;;;2.60;;
56319;SDS011;42226;42.382;23.748;2022-11-20T08:47:59;3.92;;;2.30;;
56319;SDS011;42226;42.382;23.748;2022-11-20T08:50:27;4.40;;;2.47;;
56319;SDS011;42226;42.382;23.748;2022-11-20T08:53:01;4.85;;;2.28;;
56319;SDS011;42226;42.382;23.748;2022-11-20T08:55:32;2.85;;;2.10;;
56319;SDS011;42226;42.382;23.748;2022-11-20T08:58:04;2.50;;;2.10;;
56319;SDS011;42226;42.382;23.748;2022-11-20T09:00:33;3.47;;;2.28;;
56319;SDS011;42226;42.382;23.748;2022-11-20T09:02:59;3.47;;;2.28;;
56319;SDS011;42226;42.382;23.748;2022-11-20T09:05:28;2.72;;;2.30;;
56319;SDS011;42226;42.382;23.748;2022-11-20T09:07:56;3.20;;;2.30;;
56319;SDS011;42226;42.382;23.748;2022-11-20T09:10:29;4.55;;;2.00;;
56319;SDS011;42226;42.382;23.748;2022-11-20T09:12:55;2.38;;;1.80;;
56319;SDS011;42226;42.382;23.748;2022-11-20T09:15:23;2.92;;;1.83;;
56319;SDS011;42226;42.382;23.748;2022-11-20T09:17:51;2.75;;;1.70;;
56319;SDS011;42226;42.382;23.748;2022-11-20T09:20:19;6.65;;;2.10;;
56319;SDS011;42226;42.382;23.748;2022-11-20T09:22:46;4.47;;;2.10;;
56319;SDS011;42226;42.382;23.748;2022-11-20T09:25:14;2.20;;;1.70;;
56319;SDS011;42226;42.382;23.748;2022-11-20T09:27:42;4.65;;;1.98;;
56319;SDS011;42226;42.382;23.748;2022-11-20T09:30:12;6.00;;;2.10;;
56319;SDS011;42226;42.382;23.748;2022-11-20T09:32:43;3.22;;;1.80;;
56319;SDS011;42226;42.382;23.748;2022-11-20T09:35:10;3.20;;;1.80;;
56319;SDS011;42226;42.382;23.748;2022-11-20T09:37:37;3.85;;;1.98;;
56319;SDS011;42226;42.382;23.748;2022-11-20T09:40:04;5.03;;;2.10;;
56319;SDS011;42226;42.382;23.748;2022-11-20T09:42:47;4.68;;;2.05;;
56319;SDS011;42226;42.382;23.748;2022-11-20T09:48:52;3.42;;;1.80;;
56319;SDS011;42226;42.382;23.748;2022-11-20T09:56:48;2.92;;;1.67;;
56319;SDS011;42226;42.382;23.748;2022-11-20T09:59:30;3.40;;;1.98;;
56319;SDS011;42226;42.382;23.748;2022-11-20T10:02:27;2.90;;;1.95;;
56319;SDS011;42226;42.382;23.748;2022-11-20T10:05:30;4.10;;;1.80;;
56319;SDS011;42226;42.382;23.748;2022-11-20T10:08:16;4.35;;;1.83;;
56319;SDS011;42226;42.382;23.748;2022-11-20T10:14:14;4.43;;;2.30;;
56319;SDS011;42226;42.382;23.748;2022-11-20T10:19:56;3.58;;;2.10;;
56319;SDS011;42226;42.382;23.748;2022-11-20T10:23:01;3.42;;;1.60;;
56319;SDS011;42226;42.382;23.748;2022-11-20T10:26:01;3.70;;;1.85;;
56319;SDS011;42226;42.382;23.748;2022-11-20T10:28:53;1.92;;;1.50;;
56319;SDS011;42226;42.382;23.748;2022-11-20T10:31:49;2.72;;;1.73;;
56319;SDS011;42226;42.382;23.748;2022-11-20T10:34:27;3.25;;;1.75;;
56319;SDS011;42226;42.382;23.748;2022-11-20T10:37:11;3.30;;;1.65;;
56319;SDS011;42226;42.382;23.748;2022-11-20T10:40:03;4.78;;;1.70;;
56319;SDS011;42226;42.382;23.748;2022-11-20T10:43:02;5.05;;;1.85;;
56319;SDS011;42226;42.382;23.748;2022-11-20T10:45:38;3.05;;;2.22;;
56319;SDS011;42226;42.382;23.748;2022-11-20T10:48:24;3.97;;;2.13;;
56319;SDS011;42226;42.382;23.748;2022-11-20T10:51:03;5.03;;;2.30;;
56319;SDS011;42226;42.382;23.748;2022-11-20T11:00:12;4.88;;;2.35;;
56319;SDS011;42226;42.382;23.748;2022-11-20T11:02:47;5.85;;;2.20;;
56319;SDS011;42226;42.382;23.748;2022-11-20T11:08:09;3.75;;;2.00;;
56319;SDS011;42226;42.382;23.748;2022-11-20T11:10:54;4.32;;;2.22;;
56319;SDS011;42226;42.382;23.748;2022-11-20T11:13:30;4.73;;;2.20;;
56319;SDS011;42226;42.382;23.748;2022-11-20T11:15:58;4.00;;;2.30;;
56319;SDS011;42226;42.382;23.748;2022-11-20T11:18:26;5.88;;;2.65;;
56319;SDS011;42226;42.382;23.748;2022-11-20T11:21:01;5.43;;;2.45;;
56319;SDS011;42226;42.382;23.748;2022-11-20T11:26:21;5.07;;;2.58;;
56319;SDS011;42226;42.382;23.748;2022-11-20T11:29:02;5.72;;;2.53;;
56319;SDS011;42226;42.382;23.748;2022-11-20T11:31:31;4.82;;;2.72;;
56319;SDS011;42226;42.382;23.748;2022-11-20T11:34:16;4.82;;;2.63;;
56319;SDS011;42226;42.382;23.748;2022-11-20T11:36:52;7.25;;;2.40;;
56319;SDS011;42226;42.382;23.748;2022-11-20T11:39:23;2.83;;;2.38;;
56319;SDS011;42226;42.382;23.748;2022-11-20T11:41:52;6.32;;;2.50;;
56319;SDS011;42226;42.382;23.748;2022-11-20T11:44:20;8.10;;;2.70;;
56319;SDS011;42226;42.382;23.748;2022-11-20T11:47:12;6.68;;;2.40;;
56319;SDS011;42226;42.382;23.748;2022-11-20T11:49:48;5.50;;;2.33;;
56319;SDS011;42226;42.382;23.748;2022-11-20T11:52:25;6.28;;;2.50;;
56319;SDS011;42226;42.382;23.748;2022-11-20T11:54:58;7.90;;;3.00;;
56319;SDS011;42226;42.382;23.748;2022-11-20T11:57:37;6.03;;;2.38;;
56319;SDS011;42226;42.382;23.748;2022-11-20T12:00:27;5.25;;;2.08;;
56319;SDS011;42226;42.382;23.748;2022-11-20T12:06:05;5.32;;;2.00;;
56319;SDS011;42226;42.382;23.748;2022-11-20T12:08:44;6.65;;;2.30;;
56319;SDS011;42226;42.382;23.748;2022-11-20T12:11:37;5.25;;;2.42;;
56319;SDS011;42226;42.382;23.748;2022-11-20T12:14:17;4.90;;;2.30;;
56319;SDS011;42226;42.382;23.748;2022-11-20T12:16:52;4.30;;;2.35;;
56319;SDS011;42226;42.382;23.748;2022-11-20T12:19:21;3.50;;;2.30;;
56319;SDS011;42226;42.382;23.748;2022-11-20T12:22:06;6.45;;;2.30;;
56319;SDS011;42226;42.382;23.748;2022-11-20T12:34:32;5.25;;;2.35;;
56319;SDS011;42226;42.382;23.748;2022-11-20T12:46:24;6.85;;;1.90;;
56319;SDS011;42226;42.382;23.748;2022-11-20T12:57:50;3.67;;;1.85;;
56319;SDS011;42226;42.382;23.748;2022-11-20T13:00:28;3.40;;;1.90;;
56319;SDS011;42226;42.382;23.748;2022-11-20T13:06:18;5.45;;;1.98;;
56319;SDS011;42226;42.382;23.748;2022-11-20T13:08:49;6.00;;;2.20;;
56319;SDS011;42226;42.382;23.748;2022-11-20T13:17:21;5.43;;;2.30;;
56319;SDS011;42226;42.382;23.748;2022-11-20T13:19:59;5.18;;;2.45;;
56319;SDS011;42226;42.382;23.748;2022-11-20T13:22:27;5.82;;;2.78;;
56319;SDS011;42226;42.382;23.748;2022-11-20T13:25:23;6.28;;;2.97;;
56319;SDS011;42226;42.382;23.748;2022-11-20T13:27:55;5.53;;;3.28;;
56319;SDS011;42226;42.382;23.748;2022-11-20T13:30:35;4.68;;;3.17;;
56319;SDS011;42226;42.382;23.748;2022-11-20T13:36:23;4.40;;;2.83;;
56319;SDS011;42226;42.382;23.748;2022-11-20T13:38:54;5.72;;;3.33;;
56319;SDS011;42226;42.382;23.748;2022-11-20T13:41:30;5.32;;;3.15;;
56319;SDS011;42226;42.382;23.748;2022-11-20T13:46:50;10.75;;;3.63;;
56319;SDS011;42226;42.382;23.748;2022-11-20T13:49:28;4.75;;;3.00;;
56319;SDS011;42226;42.382;23.748;2022-11-20T14:00:32;3.17;;;2.70;;
56319;SDS011;42226;42.382;23.748;2022-11-20T14:03:10;6.03;;;3.03;;
56319;SDS011;42226;42.382;23.748;2022-11-20T14:05:55;6.28;;;3.53;;
56319;SDS011;42226;42.382;23.748;2022-11-20T14:08:43;3.75;;;2.80;;
56319;SDS011;42226;42.382;23.748;2022-11-20T14:11:18;5.97;;;2.92;;
56319;SDS011;42226;42.382;23.748;2022-11-20T14:16:46;3.95;;;2.42;;
56319;SDS011;42226;42.382;23.748;2022-11-20T14:27:55;5.65;;;3.03;;
56319;SDS011;42226;42.382;23.748;2022-11-20T14:30:26;6.65;;;4.10;;
56319;SDS011;42226;42.382;23.748;2022-11-20T14:33:10;6.35;;;2.60;;
56319;SDS011;42226;42.382;23.748;2022-11-20T14:35:46;5.20;;;2.40;;
56319;SDS011;42226;42.382;23.748;2022-11-20T14:38:20;6.25;;;3.30;;
56319;SDS011;42226;42.382;23.748;2022-11-20T14:40:52;7.90;;;3.30;;
56319;SDS011;42226;42.382;23.748;2022-11-20T14:43:21;4.50;;;3.63;;
56319;SDS011;42226;42.382;23.748;2022-11-20T14:45:58;5.63;;;2.90;;
56319;SDS011;42226;42.382;23.748;2022-11-20T14:48:49;5.63;;;2.92;;
56319;SDS011;42226;42.382;23.748;2022-11-20T14:51:33;4.97;;;3.20;;
56319;SDS011;42226;42.382;23.748;2022-11-20T14:54:20;7.50;;;4.00;;
56319;SDS011;42226;42.382;23.748;2022-11-20T14:56:57;6.68;;;3.03;;
56319;SDS011;42226;42.382;23.748;2022-11-20T14:59:31;4.82;;;3.70;;
56319;SDS011;42226;42.382;23.748;2022-11-20T15:02:00;5.35;;;3.05;;
56319;SDS011;42226;42.382;23.748;2022-11-20T15:04:48;5.93;;;3.72;;
56319;SDS011;42226;42.382;23.748;2022-11-20T15:07:26;5.47;;;3.50;;
56319;SDS011;42226;42.382;23.748;2022-11-20T15:12:51;5.20;;;3.53;;
56319;SDS011;42226;42.382;23.748;2022-11-20T15:18:05;6.80;;;2.90;;
56319;SDS011;42226;42.382;23.748;2022-11-20T15:23:12;5.82;;;2.78;;
56319;SDS011;42226;42.382;23.748;2022-11-20T15:25:44;4.90;;;2.92;;
56319;SDS011;42226;42.382;23.748;2022-11-20T15:28:30;4.43;;;2.70;;
56319;SDS011;42226;42.382;23.748;2022-11-20T15:31:03;6.47;;;2.70;;
56319;SDS011;42226;42.382;23.748;2022-11-20T15:33:30;5.72;;;2.88;;
56319;SDS011;42226;42.382;23.748;2022-11-20T15:35:58;5.70;;;3.03;;
56319;SDS011;42226;42.382;23.748;2022-11-20T15:38:27;5.10;;;3.03;;
56319;SDS011;42226;42.382;23.748;2022-11-20T15:40:54;5.80;;;3.15;;
56319;SDS011;42226;42.382;23.748;2022-11-20T15:43:22;6.18;;;3.13;;
56319;SDS011;42226;42.382;23.748;2022-11-20T15:45:53;4.82;;;4.03;;
56319;SDS011;42226;42.382;23.748;2022-11-20T15:48:50;8.05;;;3.95;;
56319;SDS011;42226;42.382;23.748;2022-11-20T15:51:36;5.88;;;2.90;;
56319;SDS011;42226;42.382;23.748;2022-11-20T15:54:11;5.65;;;3.10;;
56319;SDS011;42226;42.382;23.748;2022-11-20T15:56:41;4.03;;;2.90;;
56319;SDS011;42226;42.382;23.748;2022-11-20T15:59:07;6.03;;;3.47;;
56319;SDS011;42226;42.382;23.748;2022-11-20T16:01:37;4.88;;;3.13;;
56319;SDS011;42226;42.382;23.748;2022-11-20T16:04:04;4.10;;;2.95;;
56319;SDS011;42226;42.382;23.748;2022-11-20T16:06:37;5.32;;;2.70;;
56319;SDS011;42226;42.382;23.748;2022-11-20T16:09:04;3.53;;;2.10;;
56319;SDS011;42226;42.382;23.748;2022-11-20T16:11:31;5.97;;;2.38;;
56319;SDS011;42226;42.382;23.748;2022-11-20T16:13:58;5.35;;;2.10;;
56319;SDS011;42226;42.382;23.748;2022-11-20T16:16:45;3.08;;;1.92;;
56319;SDS011;42226;42.382;23.748;2022-11-20T16:19:12;3.20;;;1.92;;
56319;SDS011;42226;42.382;23.748;2022-11-20T16:21:43;3.55;;;1.55;;
56319;SDS011;42226;42.382;23.748;2022-11-20T16:24:10;3.90;;;1.60;;
56319;SDS011;42226;42.382;23.748;2022-11-20T16:26:40;3.28;;;2.03;;
56319;SDS011;42226;42.382;23.748;2022-11-20T16:29:07;4.22;;;1.67;;
56319;SDS011;42226;42.382;23.748;2022-11-20T16:31:36;3.78;;;1.80;;
56319;SDS011;42226;42.382;23.748;2022-11-20T16:34:04;6.18;;;1.95;;
56319;SDS011;42226;42.382;23.748;2022-11-20T16:36:33;4.18;;;1.70;;
56319;SDS011;42226;42.382;23.748;2022-11-20T16:39:01;3.05;;;1.58;;
56319;SDS011;42226;42.382;23.748;2022-11-20T16:41:31;5.97;;;2.00;;
56319;SDS011;42226;42.382;23.748;2022-11-20T16:44:00;5.20;;;1.80;;
56319;SDS011;42226;42.382;23.748;2022-11-20T16:46:31;3.92;;;1.90;;
56319;SDS011;42226;42.382;23.748;2022-11-20T16:49:00;4.03;;;1.80;;
56319;SDS011;42226;42.382;23.748;2022-11-20T16:51:36;5.45;;;2.25;;